sensor_id;sensor_type;location;lat;lon;timestamp;P1;durP1;ratioP1;P2;durP2;ratioP2
1220;SDS011;600;48.044;7.878;2022-11-20T00:01:11;3.37;;;2.63;;
1220;SDS011;600;48.044;7.878;2022-11-20T00:03:38;3.07;;;2.87;;
1220;SDS011;600;48.044;7.878;2022-11-20T00:06:06;3.40;;;2.90;;
1220;SDS011;600;48.044;7.878;2022-11-20T00:08:33;3.17;;;2.60;;
1220;SDS011;600;48.044;7.878;2022-11-20T00:11:03;3.80;;;2.97;;
1220;SDS011;600;48.044;7.878;2022-11-20T00:13:30;2.77;;;2.57;;
1220;SDS011;600;48.044;7.878;2022-11-20T00:15:58;2.93;;;2.70;;
1220;SDS011;600;48.044;7.878;2022-11-20T00:18:25;2.97;;;2.77;;
1220;SDS011;600;48.044;7.878;2022-11-20T00:20:52;3.03;;;2.70;;
1220;SDS011;600;48.044;7.878;2022-11-20T00:23:19;3.73;;;3.43;;
1220;SDS011;600;48.044;7.878;2022-11-20T00:25:46;2.97;;;2.70;;
1220;SDS011;600;48.044;7.878;2022-11-20T00:28:15;3.30;;;3.10;;
1220;SDS011;600;48.044;7.878;2022-11-20T00:30:42;2.70;;;2.50;;
1220;SDS011;600;48.044;7.878;2022-11-20T00:33:09;3.27;;;2.80;;
1220;SDS011;600;48.044;7.878;2022-11-20T00:35:36;3.93;;;3.50;;
1220;SDS011;600;48.044;7.878;2022-11-20T00:40:38;4.37;;;3.50;;
1220;SDS011;600;48.044;7.878;2022-11-20T00:43:05;3.10;;;2.90;;
1220;SDS011;600;48.044;7.878;2022-11-20T00:45:34;4.73;;;3.83;;
1220;SDS011;600;48.044;7.878;2022-11-20T00:48:01;4.60;;;4.07;;
1220;SDS011;600;48.044;7.878;2022-11-20T00:50:27;5.30;;;3.23;;
1220;SDS011;600;48.044;7.878;2022-11-20T00:52:54;4.50;;;4.10;;
1220;SDS011;600;48.044;7.878;2022-11-20T00:55:21;3.93;;;3.63;;
1220;SDS011;600;48.044;7.878;2022-11-20T00:57:48;4.10;;;3.43;;
1220;SDS011;600;48.044;7.878;2022-11-20T01:00:15;5.23;;;3.93;;
1220;SDS011;600;48.044;7.878;2022-11-20T01:02:44;4.50;;;4.10;;
1220;SDS011;600;48.044;7.878;2022-11-20T01:05:11;5.97;;;4.20;;
1220;SDS011;600;48.044;7.878;2022-11-20T01:07:38;6.60;;;4.40;;
1220;SDS011;600;48.044;7.878;2022-11-20T01:10:05;4.10;;;3.80;;
1220;SDS011;600;48.044;7.878;2022-11-20T01:12:32;7.10;;;3.60;;
1220;SDS011;600;48.044;7.878;2022-11-20T01:14:59;4.00;;;3.70;;
1220;SDS011;600;48.044;7.878;2022-11-20T01:17:26;3.90;;;3.47;;
1220;SDS011;600;48.044;7.878;2022-11-20T01:19:55;6.13;;;4.20;;
1220;SDS011;600;48.044;7.878;2022-11-20T01:22:22;4.17;;;3.13;;
1220;SDS011;600;48.044;7.878;2022-11-20T01:24:49;7.20;;;3.73;;
1220;SDS011;600;48.044;7.878;2022-11-20T01:27:16;4.77;;;3.80;;
1220;SDS011;600;48.044;7.878;2022-11-20T01:29:42;3.90;;;3.60;;
1220;SDS011;600;48.044;7.878;2022-11-20T01:32:09;3.90;;;3.07;;
1220;SDS011;600;48.044;7.878;2022-11-20T01:34:36;4.60;;;3.47;;
1220;SDS011;600;48.044;7.878;2022-11-20T01:37:04;4.23;;;3.83;;
1220;SDS011;600;48.044;7.878;2022-11-20T01:39:31;5.13;;;3.67;;
1220;SDS011;600;48.044;7.878;2022-11-20T01:41:58;3.60;;;3.30;;
1220;SDS011;600;48.044;7.878;2022-11-20T07:34:31;4.47;;;3.00;;
1220;SDS011;600;48.044;7.878;2022-11-20T07:36:58;2.63;;;2.50;;
1220;SDS011;600;48.044;7.878;2022-11-20T07:39:25;5.10;;;3.00;;
1220;SDS011;600;48.044;7.878;2022-11-20T07:41:51;2.97;;;2.77;;
1220;SDS011;600;48.044;7.878;2022-11-20T07:44:18;3.23;;;2.47;;
1220;SDS011;600;48.044;7.878;2022-11-20T07:46:45;3.03;;;2.80;;
1220;SDS011;600;48.044;7.878;2022-11-20T07:49:13;3.97;;;3.37;;
1220;SDS011;600;48.044;7.878;2022-11-20T07:51:40;3.20;;;2.80;;
1220;SDS011;600;48.044;7.878;2022-11-20T07:54:06;4.17;;;2.77;;
1220;SDS011;600;48.044;7.878;2022-11-20T07:56:33;2.70;;;2.50;;
1220;SDS011;600;48.044;7.878;2022-11-20T07:59:00;2.73;;;2.57;;
1220;SDS011;600;48.044;7.878;2022-11-20T08:01:27;3.33;;;2.50;;
1220;SDS011;600;48.044;7.878;2022-11-20T08:03:53;2.90;;;2.70;;
1220;SDS011;600;48.044;7.878;2022-11-20T08:06:21;2.93;;;2.73;;
1220;SDS011;600;48.044;7.878;2022-11-20T08:08:49;3.03;;;2.83;;
1220;SDS011;600;48.044;7.878;2022-11-20T08:11:16;3.40;;;2.93;;
1220;SDS011;600;48.044;7.878;2022-11-20T08:14:00;2.73;;;2.53;;
1220;SDS011;600;48.044;7.878;2022-11-20T08:16:40;3.77;;;3.03;;
1220;SDS011;600;48.044;7.878;2022-11-20T08:19:08;3.57;;;3.27;;
1220;SDS011;600;48.044;7.878;2022-11-20T08:21:36;6.40;;;4.00;;
1220;SDS011;600;48.044;7.878;2022-11-20T08:24:04;3.70;;;3.40;;
1220;SDS011;600;48.044;7.878;2022-11-20T08:26:31;3.37;;;3.07;;
1220;SDS011;600;48.044;7.878;2022-11-20T08:28:59;4.38;;;3.00;;
1220;SDS011;600;48.044;7.878;2022-11-20T08:31:26;3.40;;;3.10;;
1220;SDS011;600;48.044;7.878;2022-11-20T08:33:54;3.13;;;2.93;;
1220;SDS011;600;48.044;7.878;2022-11-20T08:36:21;3.43;;;3.10;;
1220;SDS011;600;48.044;7.878;2022-11-20T08:38:50;3.60;;;3.30;;
1220;SDS011;600;48.044;7.878;2022-11-20T08:41:18;3.13;;;2.90;;
1220;SDS011;600;48.044;7.878;2022-11-20T08:43:52;5.87;;;3.00;;
1220;SDS011;600;48.044;7.878;2022-11-20T08:46:20;2.70;;;2.50;;
1220;SDS011;600;48.044;7.878;2022-11-20T08:48:47;3.70;;;3.40;;
1220;SDS011;600;48.044;7.878;2022-11-20T08:51:14;3.10;;;2.80;;
1220;SDS011;600;48.044;7.878;2022-11-20T08:53:42;4.50;;;3.13;;
1220;SDS011;600;48.044;7.878;2022-11-20T08:56:10;4.37;;;2.73;;
1220;SDS011;600;48.044;7.878;2022-11-20T08:58:37;3.23;;;2.60;;
1220;SDS011;600;48.044;7.878;2022-11-20T09:01:04;3.60;;;3.30;;
1220;SDS011;600;48.044;7.878;2022-11-20T09:03:31;5.37;;;2.73;;
1220;SDS011;600;48.044;7.878;2022-11-20T09:05:58;3.37;;;2.80;;
1220;SDS011;600;48.044;7.878;2022-11-20T09:08:26;3.17;;;2.77;;
1220;SDS011;600;48.044;7.878;2022-11-20T09:10:53;3.27;;;2.97;;
1220;SDS011;600;48.044;7.878;2022-11-20T09:13:22;3.40;;;3.10;;
1220;SDS011;600;48.044;7.878;2022-11-20T09:15:52;3.70;;;2.93;;
1220;SDS011;600;48.044;7.878;2022-11-20T09:18:19;5.40;;;2.97;;
1220;SDS011;600;48.044;7.878;2022-11-20T09:20:46;3.23;;;3.03;;
1220;SDS011;600;48.044;7.878;2022-11-20T09:23:13;2.77;;;2.50;;
1220;SDS011;600;48.044;7.878;2022-11-20T09:25:40;3.07;;;2.60;;
1220;SDS011;600;48.044;7.878;2022-11-20T09:28:08;3.33;;;3.03;;
1220;SDS011;600;48.044;7.878;2022-11-20T09:30:36;3.10;;;2.90;;
1220;SDS011;600;48.044;7.878;2022-11-20T09:33:03;2.70;;;2.50;;
1220;SDS011;600;48.044;7.878;2022-11-20T09:35:31;3.13;;;2.83;;
1220;SDS011;600;48.044;7.878;2022-11-20T09:38:04;5.73;;;2.90;;
1220;SDS011;600;48.044;7.878;2022-11-20T09:40:31;3.30;;;2.80;;
1220;SDS011;600;48.044;7.878;2022-11-20T09:42:59;3.10;;;2.90;;
1220;SDS011;600;48.044;7.878;2022-11-20T09:45:37;3.40;;;3.00;;
1220;SDS011;600;48.044;7.878;2022-11-20T09:48:16;4.30;;;2.87;;
1220;SDS011;600;48.044;7.878;2022-11-20T09:50:55;3.03;;;2.83;;
1220;SDS011;600;48.044;7.878;2022-11-20T09:53:30;2.40;;;2.23;;
1220;SDS011;600;48.044;7.878;2022-11-20T09:56:07;2.57;;;2.37;;
1220;SDS011;600;48.044;7.878;2022-11-20T09:58:38;3.03;;;2.43;;
1220;SDS011;600;48.044;7.878;2022-11-20T10:01:10;3.03;;;2.60;;
1220;SDS011;600;48.044;7.878;2022-11-20T10:03:43;2.33;;;2.23;;
1220;SDS011;600;48.044;7.878;2022-11-20T10:06:20;2.90;;;2.60;;
1220;SDS011;600;48.044;7.878;2022-11-20T10:08:52;3.13;;;2.63;;
1220;SDS011;600;48.044;7.878;2022-11-20T10:11:28;4.03;;;2.77;;
1220;SDS011;600;48.044;7.878;2022-11-20T10:14:03;2.63;;;2.43;;
1220;SDS011;600;48.044;7.878;2022-11-20T10:16:38;3.17;;;2.97;;
1220;SDS011;600;48.044;7.878;2022-11-20T10:19:14;3.23;;;2.93;;
1220;SDS011;600;48.044;7.878;2022-11-20T10:21:58;3.10;;;2.90;;
1220;SDS011;600;48.044;7.878;2022-11-20T10:24:41;3.40;;;3.10;;
1220;SDS011;600;48.044;7.878;2022-11-20T10:27:18;2.80;;;2.60;;
1220;SDS011;600;48.044;7.878;2022-11-20T10:30:02;3.17;;;2.87;;
1220;SDS011;600;48.044;7.878;2022-11-20T10:32:35;3.70;;;2.63;;
1220;SDS011;600;48.044;7.878;2022-11-20T10:35:06;2.97;;;2.77;;
1220;SDS011;600;48.044;7.878;2022-11-20T10:37:44;6.90;;;3.20;;
1220;SDS011;600;48.044;7.878;2022-11-20T10:40:19;4.73;;;3.50;;
1220;SDS011;600;48.044;7.878;2022-11-20T10:42:50;4.17;;;2.90;;
1220;SDS011;600;48.044;7.878;2022-11-20T10:45:22;3.57;;;3.27;;
1220;SDS011;600;48.044;7.878;2022-11-20T10:48:10;3.23;;;2.93;;
1220;SDS011;600;48.044;7.878;2022-11-20T10:50:43;3.40;;;3.10;;
1220;SDS011;600;48.044;7.878;2022-11-20T10:53:32;3.93;;;3.20;;
1220;SDS011;600;48.044;7.878;2022-11-20T10:56:16;3.00;;;2.67;;
1220;SDS011;600;48.044;7.878;2022-11-20T10:58:48;4.27;;;3.77;;
1220;SDS011;600;48.044;7.878;2022-11-20T11:01:39;3.00;;;2.80;;
1220;SDS011;600;48.044;7.878;2022-11-20T11:04:12;3.60;;;3.30;;
1220;SDS011;600;48.044;7.878;2022-11-20T11:06:47;5.60;;;3.70;;
1220;SDS011;600;48.044;7.878;2022-11-20T11:09:15;3.43;;;3.13;;
1220;SDS011;600;48.044;7.878;2022-11-20T11:11:45;5.50;;;3.10;;
1220;SDS011;600;48.044;7.878;2022-11-20T11:14:13;3.13;;;2.93;;
1220;SDS011;600;48.044;7.878;2022-11-20T11:16:48;5.43;;;3.23;;
1220;SDS011;600;48.044;7.878;2022-11-20T11:19:17;3.50;;;3.20;;
1220;SDS011;600;48.044;7.878;2022-11-20T11:21:46;7.57;;;3.73;;
1220;SDS011;600;48.044;7.878;2022-11-20T11:27:40;3.27;;;2.97;;
1220;SDS011;600;48.044;7.878;2022-11-20T11:30:13;3.40;;;3.10;;
1220;SDS011;600;48.044;7.878;2022-11-20T11:32:41;3.57;;;3.33;;
1220;SDS011;600;48.044;7.878;2022-11-20T11:35:20;3.33;;;3.03;;
1220;SDS011;600;48.044;7.878;2022-11-20T11:37:49;6.83;;;3.40;;
1220;SDS011;600;48.044;7.878;2022-11-20T11:40:19;3.60;;;3.20;;
1220;SDS011;600;48.044;7.878;2022-11-20T11:42:50;2.90;;;2.70;;
1220;SDS011;600;48.044;7.878;2022-11-20T11:45:20;3.23;;;2.93;;
1220;SDS011;600;48.044;7.878;2022-11-20T11:47:47;2.97;;;2.67;;
1220;SDS011;600;48.044;7.878;2022-11-20T11:50:15;3.77;;;3.30;;
1220;SDS011;600;48.044;7.878;2022-11-20T11:52:48;3.80;;;2.70;;
1220;SDS011;600;48.044;7.878;2022-11-20T11:55:24;4.27;;;2.70;;
1220;SDS011;600;48.044;7.878;2022-11-20T11:57:55;3.37;;;2.57;;
1220;SDS011;600;48.044;7.878;2022-11-20T12:00:33;2.17;;;2.07;;
1220;SDS011;600;48.044;7.878;2022-11-20T12:03:05;3.13;;;2.57;;
1220;SDS011;600;48.044;7.878;2022-11-20T12:05:39;2.40;;;2.20;;
1220;SDS011;600;48.044;7.878;2022-11-20T12:08:12;2.67;;;2.47;;
1220;SDS011;600;48.044;7.878;2022-11-20T12:10:45;2.80;;;1.90;;
1220;SDS011;600;48.044;7.878;2022-11-20T12:13:20;2.37;;;2.17;;
1220;SDS011;600;48.044;7.878;2022-11-20T12:15:54;2.10;;;1.90;;
1220;SDS011;600;48.044;7.878;2022-11-20T12:18:22;2.57;;;2.10;;
1220;SDS011;600;48.044;7.878;2022-11-20T12:20:53;1.80;;;1.70;;
1220;SDS011;600;48.044;7.878;2022-11-20T12:23:30;2.73;;;2.47;;
1220;SDS011;600;48.044;7.878;2022-11-20T12:26:07;2.57;;;2.30;;
1220;SDS011;600;48.044;7.878;2022-11-20T12:28:44;2.53;;;1.80;;
1220;SDS011;600;48.044;7.878;2022-11-20T12:31:36;1.47;;;1.37;;
1220;SDS011;600;48.044;7.878;2022-11-20T12:34:24;1.80;;;1.60;;
1220;SDS011;600;48.044;7.878;2022-11-20T12:37:03;1.80;;;1.50;;
1220;SDS011;600;48.044;7.878;2022-11-20T12:39:41;1.90;;;1.80;;
1220;SDS011;600;48.044;7.878;2022-11-20T12:42:23;1.90;;;1.80;;
1220;SDS011;600;48.044;7.878;2022-11-20T12:45:20;3.60;;;1.77;;
1220;SDS011;600;48.044;7.878;2022-11-20T12:48:11;2.20;;;1.73;;
1220;SDS011;600;48.044;7.878;2022-11-20T12:51:16;5.43;;;2.10;;
1220;SDS011;600;48.044;7.878;2022-11-20T12:54:08;3.43;;;2.20;;
1220;SDS011;600;48.044;7.878;2022-11-20T12:56:56;2.63;;;2.10;;
1220;SDS011;600;48.044;7.878;2022-11-20T12:59:33;3.50;;;2.20;;
1220;SDS011;600;48.044;7.878;2022-11-20T13:02:18;3.80;;;2.37;;
1220;SDS011;600;48.044;7.878;2022-11-20T13:04:58;2.50;;;2.30;;
1220;SDS011;600;48.044;7.878;2022-11-20T13:07:41;3.57;;;2.67;;
1220;SDS011;600;48.044;7.878;2022-11-20T13:10:13;5.13;;;2.10;;
1220;SDS011;600;48.044;7.878;2022-11-20T13:12:49;6.13;;;2.30;;
1220;SDS011;600;48.044;7.878;2022-11-20T13:15:26;5.27;;;3.00;;
1220;SDS011;600;48.044;7.878;2022-11-20T13:18:10;5.10;;;2.27;;
1220;SDS011;600;48.044;7.878;2022-11-20T13:20:42;3.20;;;2.10;;
1220;SDS011;600;48.044;7.878;2022-11-20T13:23:10;3.20;;;2.67;;
1220;SDS011;600;48.044;7.878;2022-11-20T13:25:38;2.53;;;2.33;;
1220;SDS011;600;48.044;7.878;2022-11-20T13:30:54;4.37;;;2.37;;
1220;SDS011;600;48.044;7.878;2022-11-20T13:33:23;2.33;;;2.13;;
1220;SDS011;600;48.044;7.878;2022-11-20T13:35:55;2.87;;;1.97;;
1220;SDS011;600;48.044;7.878;2022-11-20T13:38:23;3.30;;;2.30;;
1220;SDS011;600;48.044;7.878;2022-11-20T13:40:51;2.60;;;2.40;;
1220;SDS011;600;48.044;7.878;2022-11-20T13:43:21;2.27;;;1.90;;
1220;SDS011;600;48.044;7.878;2022-11-20T13:46:01;2.27;;;1.60;;
1220;SDS011;600;48.044;7.878;2022-11-20T13:48:30;3.17;;;1.90;;
1220;SDS011;600;48.044;7.878;2022-11-20T13:51:01;1.63;;;1.53;;
1220;SDS011;600;48.044;7.878;2022-11-20T13:56:49;2.43;;;1.63;;
1220;SDS011;600;48.044;7.878;2022-11-20T13:59:32;1.63;;;1.53;;
1220;SDS011;600;48.044;7.878;2022-11-20T14:02:15;2.57;;;2.00;;
1220;SDS011;600;48.044;7.878;2022-11-20T14:04:45;1.80;;;1.70;;
1220;SDS011;600;48.044;7.878;2022-11-20T14:07:13;2.13;;;1.50;;
1220;SDS011;600;48.044;7.878;2022-11-20T14:09:49;2.10;;;1.67;;
1220;SDS011;600;48.044;7.878;2022-11-20T14:12:18;2.03;;;1.80;;
1220;SDS011;600;48.044;7.878;2022-11-20T14:14:50;3.20;;;1.87;;
1220;SDS011;600;48.044;7.878;2022-11-20T14:17:20;2.77;;;1.97;;
1220;SDS011;600;48.044;7.878;2022-11-20T14:19:49;2.07;;;1.87;;
1220;SDS011;600;48.044;7.878;2022-11-20T14:22:18;3.30;;;2.10;;
1220;SDS011;600;48.044;7.878;2022-11-20T14:24:46;3.13;;;2.57;;
1220;SDS011;600;48.044;7.878;2022-11-20T14:27:14;2.40;;;2.00;;
1220;SDS011;600;48.044;7.878;2022-11-20T14:29:42;2.40;;;2.20;;
1220;SDS011;600;48.044;7.878;2022-11-20T14:32:10;2.40;;;1.90;;
1220;SDS011;600;48.044;7.878;2022-11-20T14:34:41;3.60;;;2.27;;
1220;SDS011;600;48.044;7.878;2022-11-20T14:37:11;2.80;;;1.90;;
1220;SDS011;600;48.044;7.878;2022-11-20T14:39:40;2.80;;;1.60;;
1220;SDS011;600;48.044;7.878;2022-11-20T14:42:16;2.00;;;1.90;;
1220;SDS011;600;48.044;7.878;2022-11-20T14:44:44;3.23;;;1.97;;
1220;SDS011;600;48.044;7.878;2022-11-20T14:47:12;2.00;;;1.80;;
1220;SDS011;600;48.044;7.878;2022-11-20T14:49:42;3.17;;;1.63;;
1220;SDS011;600;48.044;7.878;2022-11-20T14:52:11;2.47;;;2.17;;
1220;SDS011;600;48.044;7.878;2022-11-20T14:54:43;2.63;;;1.97;;
1220;SDS011;600;48.044;7.878;2022-11-20T14:57:20;2.83;;;1.93;;
1220;SDS011;600;48.044;7.878;2022-11-20T14:59:51;2.67;;;1.83;;
1220;SDS011;600;48.044;7.878;2022-11-20T15:02:38;6.33;;;2.87;;
1220;SDS011;600;48.044;7.878;2022-11-20T15:05:08;4.70;;;2.90;;
1220;SDS011;600;48.044;7.878;2022-11-20T15:07:36;4.87;;;3.00;;
1220;SDS011;600;48.044;7.878;2022-11-20T15:10:05;2.50;;;2.40;;
1220;SDS011;600;48.044;7.878;2022-11-20T15:12:35;1.90;;;1.80;;
1220;SDS011;600;48.044;7.878;2022-11-20T15:15:04;2.60;;;2.23;;
1220;SDS011;600;48.044;7.878;2022-11-20T15:17:32;2.60;;;1.87;;
1220;SDS011;600;48.044;7.878;2022-11-20T15:20:02;2.33;;;2.10;;
1220;SDS011;600;48.044;7.878;2022-11-20T15:22:38;3.73;;;2.17;;
1220;SDS011;600;48.044;7.878;2022-11-20T15:25:10;3.33;;;2.27;;
1220;SDS011;600;48.044;7.878;2022-11-20T15:27:38;2.23;;;2.13;;
1220;SDS011;600;48.044;7.878;2022-11-20T15:30:11;2.80;;;2.53;;
1220;SDS011;600;48.044;7.878;2022-11-20T15:32:39;2.40;;;2.20;;
1220;SDS011;600;48.044;7.878;2022-11-20T15:35:06;3.33;;;2.00;;
1220;SDS011;600;48.044;7.878;2022-11-20T15:37:33;2.57;;;2.00;;
1220;SDS011;600;48.044;7.878;2022-11-20T15:40:02;2.43;;;2.10;;
1220;SDS011;600;48.044;7.878;2022-11-20T15:42:29;2.80;;;1.73;;
1220;SDS011;600;48.044;7.878;2022-11-20T15:44:56;2.93;;;2.00;;
1220;SDS011;600;48.044;7.878;2022-11-20T15:47:24;1.90;;;1.80;;
1220;SDS011;600;48.044;7.878;2022-11-20T15:49:53;3.27;;;2.40;;
1220;SDS011;600;48.044;7.878;2022-11-20T15:52:20;2.37;;;1.77;;
1220;SDS011;600;48.044;7.878;2022-11-20T15:54:47;2.40;;;1.80;;
1220;SDS011;600;48.044;7.878;2022-11-20T15:57:15;2.07;;;1.30;;
1220;SDS011;600;48.044;7.878;2022-11-20T15:59:42;1.33;;;1.20;;
1220;SDS011;600;48.044;7.878;2022-11-20T16:02:09;2.00;;;1.80;;
1220;SDS011;600;48.044;7.878;2022-11-20T16:04:37;1.87;;;1.77;;
1220;SDS011;600;48.044;7.878;2022-11-20T16:07:04;1.60;;;1.50;;
1220;SDS011;600;48.044;7.878;2022-11-20T16:09:31;2.63;;;2.00;;
1220;SDS011;600;48.044;7.878;2022-11-20T16:11:58;3.50;;;3.20;;
1220;SDS011;600;48.044;7.878;2022-11-20T16:14:26;3.03;;;2.60;;
1220;SDS011;600;48.044;7.878;2022-11-20T16:17:11;2.10;;;1.90;;
1220;SDS011;600;48.044;7.878;2022-11-20T16:19:38;2.17;;;1.97;;
1220;SDS011;600;48.044;7.878;2022-11-20T16:22:05;2.90;;;2.20;;
1220;SDS011;600;48.044;7.878;2022-11-20T16:24:31;3.87;;;3.57;;
1220;SDS011;600;48.044;7.878;2022-11-20T16:26:59;2.90;;;2.60;;
1220;SDS011;600;48.044;7.878;2022-11-20T16:29:27;7.13;;;2.50;;
1220;SDS011;600;48.044;7.878;2022-11-20T16:31:53;1.70;;;1.60;;
1220;SDS011;600;48.044;7.878;2022-11-20T16:34:20;1.67;;;1.57;;
1220;SDS011;600;48.044;7.878;2022-11-20T16:36:47;2.10;;;1.90;;
1220;SDS011;600;48.044;7.878;2022-11-20T16:39:14;2.77;;;2.10;;
1220;SDS011;600;48.044;7.878;2022-11-20T16:41:40;2.03;;;1.80;;
1220;SDS011;600;48.044;7.878;2022-11-20T16:44:08;1.70;;;1.60;;
1220;SDS011;600;48.044;7.878;2022-11-20T16:46:37;2.07;;;1.40;;
1220;SDS011;600;48.044;7.878;2022-11-20T16:49:11;2.40;;;2.00;;
1220;SDS011;600;48.044;7.878;2022-11-20T16:51:41;3.10;;;2.80;;
1220;SDS011;600;48.044;7.878;2022-11-20T16:54:08;2.00;;;1.90;;
1220;SDS011;600;48.044;7.878;2022-11-20T16:56:35;2.30;;;2.03;;
1220;SDS011;600;48.044;7.878;2022-11-20T16:59:03;3.43;;;2.40;;
1220;SDS011;600;48.044;7.878;2022-11-20T17:01:31;2.40;;;2.20;;
1220;SDS011;600;48.044;7.878;2022-11-20T17:04:02;1.60;;;1.50;;
1220;SDS011;600;48.044;7.878;2022-11-20T17:06:31;3.10;;;2.50;;
1220;SDS011;600;48.044;7.878;2022-11-20T17:08:58;2.77;;;2.57;;
1220;SDS011;600;48.044;7.878;2022-11-20T17:11:26;3.20;;;2.10;;
1220;SDS011;600;48.044;7.878;2022-11-20T17:13:53;2.63;;;1.63;;
1220;SDS011;600;48.044;7.878;2022-11-20T17:16:21;1.90;;;1.70;;
1220;SDS011;600;48.044;7.878;2022-11-20T17:18:49;1.60;;;1.50;;
1220;SDS011;600;48.044;7.878;2022-11-20T17:21:17;2.57;;;1.70;;
1220;SDS011;600;48.044;7.878;2022-11-20T17:23:45;3.07;;;2.77;;
1220;SDS011;600;48.044;7.878;2022-11-20T17:26:13;2.30;;;2.10;;
1220;SDS011;600;48.044;7.878;2022-11-20T17:28:42;2.27;;;2.07;;
1220;SDS011;600;48.044;7.878;2022-11-20T17:31:11;1.77;;;1.67;;
1220;SDS011;600;48.044;7.878;2022-11-20T17:33:39;1.87;;;1.77;;
1220;SDS011;600;48.044;7.878;2022-11-20T17:36:08;3.60;;;2.10;;
1220;SDS011;600;48.044;7.878;2022-11-20T17:38:37;2.90;;;1.60;;
1220;SDS011;600;48.044;7.878;2022-11-20T17:41:04;2.33;;;1.73;;
1220;SDS011;600;48.044;7.878;2022-11-20T17:43:32;2.60;;;2.03;;
1220;SDS011;600;48.044;7.878;2022-11-20T17:46:02;1.97;;;1.87;;
1220;SDS011;600;48.044;7.878;2022-11-20T17:48:30;2.03;;;1.83;;
1220;SDS011;600;48.044;7.878;2022-11-20T17:50:58;2.93;;;2.60;;
1220;SDS011;600;48.044;7.878;2022-11-20T17:53:25;2.50;;;2.30;;
1220;SDS011;600;48.044;7.878;2022-11-20T17:55:56;2.00;;;1.70;;
1220;SDS011;600;48.044;7.878;2022-11-20T17:58:40;2.10;;;1.90;;
1220;SDS011;600;48.044;7.878;2022-11-20T18:01:07;1.13;;;1.13;;
1220;SDS011;600;48.044;7.878;2022-11-20T18:03:35;1.60;;;1.50;;
1220;SDS011;600;48.044;7.878;2022-11-20T18:06:06;2.37;;;1.67;;
1220;SDS011;600;48.044;7.878;2022-11-20T18:08:34;1.63;;;1.53;;
1220;SDS011;600;48.044;7.878;2022-11-20T18:11:09;1.30;;;1.20;;
1220;SDS011;600;48.044;7.878;2022-11-20T18:13:37;1.70;;;1.33;;
1220;SDS011;600;48.044;7.878;2022-11-20T18:16:21;1.70;;;1.60;;
1220;SDS011;600;48.044;7.878;2022-11-20T18:18:48;1.70;;;1.60;;
1220;SDS011;600;48.044;7.878;2022-11-20T18:21:15;2.13;;;1.80;;
1220;SDS011;600;48.044;7.878;2022-11-20T18:23:42;2.20;;;2.10;;
1220;SDS011;600;48.044;7.878;2022-11-20T18:26:10;4.38;;;1.80;;
1220;SDS011;600;48.044;7.878;2022-11-20T18:28:37;2.38;;;1.63;;
1220;SDS011;600;48.044;7.878;2022-11-20T18:31:04;1.70;;;1.60;;
1220;SDS011;600;48.044;7.878;2022-11-20T18:33:32;3.45;;;2.08;;
1220;SDS011;600;48.044;7.878;2022-11-20T18:36:07;1.70;;;1.60;;
1220;SDS011;600;48.044;7.878;2022-11-20T18:38:34;2.25;;;2.05;;
1220;SDS011;600;48.044;7.878;2022-11-20T18:41:04;2.10;;;1.88;;
1220;SDS011;600;48.044;7.878;2022-11-20T18:43:32;2.00;;;1.90;;
1220;SDS011;600;48.044;7.878;2022-11-20T18:46:17;1.80;;;1.70;;
1220;SDS011;600;48.044;7.878;2022-11-20T18:48:46;2.15;;;1.98;;
1220;SDS011;600;48.044;7.878;2022-11-20T18:51:12;1.60;;;1.50;;
1220;SDS011;600;48.044;7.878;2022-11-20T18:53:40;2.55;;;1.90;;
1220;SDS011;600;48.044;7.878;2022-11-20T18:56:07;2.83;;;2.13;;
1220;SDS011;600;48.044;7.878;2022-11-20T18:58:35;4.65;;;2.40;;
1220;SDS011;600;48.044;7.878;2022-11-20T19:01:03;3.92;;;3.50;;
1220;SDS011;600;48.044;7.878;2022-11-20T19:03:30;2.55;;;2.10;;
1220;SDS011;600;48.044;7.878;2022-11-20T19:05:57;1.75;;;1.65;;
1220;SDS011;600;48.044;7.878;2022-11-20T19:08:24;1.85;;;1.70;;
1220;SDS011;600;48.044;7.878;2022-11-20T19:10:51;2.20;;;2.00;;
1220;SDS011;600;48.044;7.878;2022-11-20T19:13:17;2.03;;;1.92;;
1220;SDS011;600;48.044;7.878;2022-11-20T19:15:45;2.45;;;2.25;;
1220;SDS011;600;48.044;7.878;2022-11-20T19:18:12;1.60;;;1.50;;
1220;SDS011;600;48.044;7.878;2022-11-20T19:20:39;4.80;;;2.70;;
1220;SDS011;600;48.044;7.878;2022-11-20T19:23:06;2.60;;;2.10;;
1220;SDS011;600;48.044;7.878;2022-11-20T19:25:33;2.42;;;2.22;;
1220;SDS011;600;48.044;7.878;2022-11-20T19:28:00;2.33;;;2.22;;
1220;SDS011;600;48.044;7.878;2022-11-20T19:30:27;2.90;;;2.10;;
1220;SDS011;600;48.044;7.878;2022-11-20T19:32:55;1.98;;;1.80;;
1220;SDS011;600;48.044;7.878;2022-11-20T19:35:22;1.80;;;1.58;;
1220;SDS011;600;48.044;7.878;2022-11-20T19:37:50;2.90;;;1.90;;
1220;SDS011;600;48.044;7.878;2022-11-20T19:40:16;1.63;;;1.52;;
1220;SDS011;600;48.044;7.878;2022-11-20T19:42:43;2.05;;;1.95;;
1220;SDS011;600;48.044;7.878;2022-11-20T19:45:10;3.60;;;2.00;;
1220;SDS011;600;48.044;7.878;2022-11-20T19:47:37;2.20;;;2.00;;
1220;SDS011;600;48.044;7.878;2022-11-20T19:50:05;2.08;;;1.98;;
1220;SDS011;600;48.044;7.878;2022-11-20T19:52:32;3.60;;;2.40;;
1220;SDS011;600;48.044;7.878;2022-11-20T19:54:59;2.67;;;1.95;;
1220;SDS011;600;48.044;7.878;2022-11-20T19:57:26;3.22;;;2.60;;
1220;SDS011;600;48.044;7.878;2022-11-20T19:59:53;3.58;;;2.60;;
1220;SDS011;600;48.044;7.878;2022-11-20T20:02:20;2.45;;;2.20;;
1220;SDS011;600;48.044;7.878;2022-11-20T20:04:47;3.00;;;2.70;;
1220;SDS011;600;48.044;7.878;2022-11-20T20:07:15;2.88;;;2.33;;
1220;SDS011;600;48.044;7.878;2022-11-20T20:09:43;2.50;;;2.30;;
1220;SDS011;600;48.044;7.878;2022-11-20T20:12:09;2.00;;;1.90;;
1220;SDS011;600;48.044;7.878;2022-11-20T20:14:36;3.90;;;2.92;;
1220;SDS011;600;48.044;7.878;2022-11-20T20:17:03;3.20;;;1.77;;
1220;SDS011;600;48.044;7.878;2022-11-20T20:19:29;1.95;;;1.80;;
1220;SDS011;600;48.044;7.878;2022-11-20T20:21:56;1.58;;;1.48;;
1220;SDS011;600;48.044;7.878;2022-11-20T20:24:26;2.35;;;1.48;;
1220;SDS011;600;48.044;7.878;2022-11-20T20:26:52;2.50;;;2.30;;
1220;SDS011;600;48.044;7.878;2022-11-20T20:29:19;1.60;;;1.50;;
1220;SDS011;600;48.044;7.878;2022-11-20T20:31:46;1.30;;;1.30;;
1220;SDS011;600;48.044;7.878;2022-11-20T20:34:13;1.42;;;1.33;;
1220;SDS011;600;48.044;7.878;2022-11-20T20:36:40;1.38;;;1.27;;
1220;SDS011;600;48.044;7.878;2022-11-20T20:39:08;1.70;;;1.60;;
1220;SDS011;600;48.044;7.878;2022-11-20T20:41:37;1.42;;;1.33;;
1220;SDS011;600;48.044;7.878;2022-11-20T20:44:04;0.98;;;0.98;;
1220;SDS011;600;48.044;7.878;2022-11-20T20:46:50;1.15;;;1.15;;
1220;SDS011;600;48.044;7.878;2022-11-20T20:49:17;1.25;;;1.25;;
1220;SDS011;600;48.044;7.878;2022-11-20T20:51:44;1.45;;;1.35;;
1220;SDS011;600;48.044;7.878;2022-11-20T20:54:10;1.40;;;1.40;;
1220;SDS011;600;48.044;7.878;2022-11-20T20:56:38;1.48;;;1.38;;
1220;SDS011;600;48.044;7.878;2022-11-20T20:59:05;1.45;;;1.35;;
1220;SDS011;600;48.044;7.878;2022-11-20T21:01:32;1.27;;;1.23;;
1220;SDS011;600;48.044;7.878;2022-11-20T21:03:59;1.50;;;1.40;;
1220;SDS011;600;48.044;7.878;2022-11-20T21:06:25;1.55;;;1.45;;
1220;SDS011;600;48.044;7.878;2022-11-20T21:08:52;1.77;;;1.67;;
1220;SDS011;600;48.044;7.878;2022-11-20T21:11:21;3.13;;;1.58;;
1220;SDS011;600;48.044;7.878;2022-11-20T21:13:49;1.88;;;1.45;;
1220;SDS011;600;48.044;7.878;2022-11-20T21:16:16;1.65;;;1.55;;
1220;SDS011;600;48.044;7.878;2022-11-20T21:18:45;1.30;;;1.20;;
1220;SDS011;600;48.044;7.878;2022-11-20T21:21:12;1.35;;;1.33;;
1220;SDS011;600;48.044;7.878;2022-11-20T21:23:58;2.95;;;1.42;;
1220;SDS011;600;48.044;7.878;2022-11-20T21:26:24;1.48;;;1.38;;
1220;SDS011;600;48.044;7.878;2022-11-20T21:28:53;2.33;;;2.15;;
1220;SDS011;600;48.044;7.878;2022-11-20T21:31:21;1.20;;;1.15;;
1220;SDS011;600;48.044;7.878;2022-11-20T21:33:51;1.35;;;1.30;;
1220;SDS011;600;48.044;7.878;2022-11-20T21:36:20;2.40;;;1.40;;
1220;SDS011;600;48.044;7.878;2022-11-20T21:38:49;1.40;;;1.30;;
1220;SDS011;600;48.044;7.878;2022-11-20T21:41:16;2.10;;;1.60;;
1220;SDS011;600;48.044;7.878;2022-11-20T21:43:43;2.40;;;1.50;;
1220;SDS011;600;48.044;7.878;2022-11-20T21:46:12;1.70;;;1.60;;
1220;SDS011;600;48.044;7.878;2022-11-20T21:48:40;1.40;;;1.30;;
1220;SDS011;600;48.044;7.878;2022-11-20T21:51:10;1.60;;;1.20;;